Time;durP1;ratioP1;P1;durP2;ratioP2;P2;SDS_P1;SDS_P2;PMS_P1;PMS_P2;Temp;Humidity;BMP_temperature;BMP_pressure;BME280_temperature;BME280_humidity;BME280_pressure;Samples;Min_cycle;Max_cycle;Signal;HPM_P1;HPM_P2
2021/11/28 00:01:53;;;;;;;10.40;6.82;;;;;;;;;;4952386;28;20198;-78
2021/11/28 00:04:21;;;;;;;8.68;7.25;;;;;;;;;;4952339;28;20234;-77
2021/11/28 00:06:56;;;;;;;10.40;6.88;;;;;;;;;;4952409;28;20529;-77
2021/11/28 00:09:39;;;;;;;11.18;6.50;;;;;;;;;;4936996;29;20599;-77
2021/11/28 00:12:13;;;;;;;8.70;6.20;;;;;;;;;;4933040;29;20206;-78
2021/11/28 00:14:41;;;;;;;13.40;5.90;;;;;;;;;;4935186;29;20198;-76
2021/11/28 00:17:09;;;;;;;10.60;6.45;;;;;;;;;;4935844;28;20226;-78
2021/11/28 00:19:37;;;;;;;14.10;6.25;;;;;;;;;;4938602;29;20691;-81
2021/11/28 00:22:04;;;;;;;10.50;6.45;;;;;;;;;;4934896;29;20205;-78
2021/11/28 00:24:33;;;;;;;11.13;7.00;;;;;;;;;;4933275;29;20202;-80
2021/11/28 00:27:00;;;;;;;8.85;6.18;;;;;;;;;;4937692;28;20224;-81
2021/11/28 00:29:28;;;;;;;11.55;5.68;;;;;;;;;;4913945;29;20227;-77
2021/11/28 00:31:56;;;;;;;9.30;6.32;;;;;;;;;;4923915;29;20203;-81
2021/11/28 00:34:23;;;;;;;9.73;5.63;;;;;;;;;;4940181;29;20662;-77
2021/11/28 00:36:50;;;;;;;7.70;5.55;;;;;;;;;;4942868;28;20213;-75
2021/11/28 00:39:17;;;;;;;9.18;6.20;;;;;;;;;;4938118;29;20205;-80
2021/11/28 00:41:46;;;;;;;8.02;5.90;;;;;;;;;;4929156;28;20220;-76
2021/11/28 00:44:13;;;;;;;14.02;6.63;;;;;;;;;;4933234;29;20203;-77
2021/11/28 00:46:41;;;;;;;13.23;6.60;;;;;;;;;;4930993;29;20231;-79
2021/11/28 00:49:15;;;;;;;7.80;5.40;;;;;;;;;;4934534;28;20237;-77
2021/11/28 00:51:50;;;;;;;12.38;6.55;;;;;;;;;;4940144;28;20293;-78
2021/11/28 00:54:18;;;;;;;10.07;6.28;;;;;;;;;;4951628;28;20689;-80
2021/11/28 00:56:47;;;;;;;11.18;6.60;;;;;;;;;;4955140;28;20637;-80
2021/11/28 00:59:14;;;;;;;9.07;5.80;;;;;;;;;;4935416;29;20245;-78
2021/11/28 01:01:41;;;;;;;13.63;6.68;;;;;;;;;;4936324;29;20213;-81
2021/11/28 01:04:09;;;;;;;8.77;5.60;;;;;;;;;;4942267;29;20194;-76
2021/11/28 01:06:36;;;;;;;19.15;7.03;;;;;;;;;;4941018;28;20222;-78
2021/11/28 01:09:04;;;;;;;7.40;5.43;;;;;;;;;;4936492;29;20584;-78
2021/11/28 01:11:32;;;;;;;8.55;6.00;;;;;;;;;;4950615;28;20237;-77
2021/11/28 01:14:00;;;;;;;11.45;6.65;;;;;;;;;;4936198;29;20199;-76
2021/11/28 01:16:28;;;;;;;8.48;5.75;;;;;;;;;;4935900;29;20209;-81
2021/11/28 01:18:55;;;;;;;8.50;5.60;;;;;;;;;;4952381;28;21036;-79
2021/11/28 01:21:24;;;;;;;8.60;5.90;;;;;;;;;;4942705;28;20253;-76
2021/11/28 01:23:52;;;;;;;11.18;6.15;;;;;;;;;;4934702;29;20237;-75
2021/11/28 01:26:19;;;;;;;7.72;5.85;;;;;;;;;;4931915;29;20203;-77
2021/11/28 01:28:46;;;;;;;8.60;6.50;;;;;;;;;;4935645;29;20210;-78
2021/11/28 01:31:15;;;;;;;11.20;6.00;;;;;;;;;;4933681;29;20203;-78
2021/11/28 01:33:42;;;;;;;8.30;6.30;;;;;;;;;;4938693;29;20600;-79
2021/11/28 01:36:10;;;;;;;10.15;6.57;;;;;;;;;;4941752;28;20194;-78
2021/11/28 01:38:38;;;;;;;7.55;5.78;;;;;;;;;;4949679;28;20688;-75
2021/11/28 01:41:05;;;;;;;9.80;5.95;;;;;;;;;;4955086;29;20201;-79
2021/11/28 01:43:32;;;;;;;9.82;5.50;;;;;;;;;;4933267;29;20211;-79
2021/11/28 01:45:59;;;;;;;9.77;6.20;;;;;;;;;;4935115;29;20244;-80
2021/11/28 01:48:29;;;;;;;9.95;5.75;;;;;;;;;;4935727;29;20609;-76
2021/11/28 01:51:01;;;;;;;7.85;5.68;;;;;;;;;;4940161;28;20466;-76
2021/11/28 01:53:29;;;;;;;8.30;6.43;;;;;;;;;;4939768;29;21320;-83
2021/11/28 01:55:56;;;;;;;8.43;6.10;;;;;;;;;;4934853;29;20202;-76
2021/11/28 01:58:25;;;;;;;8.25;5.63;;;;;;;;;;4948860;28;20258;-77
2021/11/28 02:00:54;;;;;;;8.90;5.35;;;;;;;;;;4934396;29;20209;-79
2021/11/28 02:03:21;;;;;;;9.05;5.90;;;;;;;;;;4935669;29;20500;-81
2021/11/28 02:05:51;;;;;;;9.90;6.05;;;;;;;;;;4934261;29;20210;-79
2021/11/28 02:08:18;;;;;;;14.40;6.72;;;;;;;;;;4936827;29;20590;-77
2021/11/28 02:10:46;;;;;;;7.60;5.88;;;;;;;;;;4935768;29;20311;-82
2021/11/28 02:13:14;;;;;;;9.50;6.95;;;;;;;;;;4942171;28;20218;-76
2021/11/28 02:15:42;;;;;;;9.25;6.50;;;;;;;;;;4945899;28;20210;-83
2021/11/28 02:18:10;;;;;;;9.13;6.35;;;;;;;;;;4946494;28;20727;-76
2021/11/28 02:20:43;;;;;;;9.23;6.00;;;;;;;;;;4916030;29;20347;-78
2021/11/28 02:23:10;;;;;;;7.50;5.55;;;;;;;;;;4915942;29;20210;-78
2021/11/28 02:25:37;;;;;;;8.35;5.60;;;;;;;;;;4921227;29;20568;-74
2021/11/28 02:28:04;;;;;;;9.02;6.47;;;;;;;;;;4934991;29;20229;-78
2021/11/28 02:30:32;;;;;;;6.10;5.50;;;;;;;;;;4936977;29;20229;-76
2021/11/28 02:32:59;;;;;;;10.05;5.60;;;;;;;;;;4937072;29;20226;-77
2021/11/28 02:35:30;;;;;;;7.32;5.30;;;;;;;;;;4938665;29;20653;-78
2021/11/28 02:37:59;;;;;;;8.70;5.85;;;;;;;;;;4937253;28;20277;-80
2021/11/28 02:40:27;;;;;;;7.97;5.90;;;;;;;;;;4933521;29;20687;-82
2021/11/28 02:42:55;;;;;;;6.53;5.30;;;;;;;;;;4933571;29;20202;-76
2021/11/28 02:45:23;;;;;;;7.88;5.38;;;;;;;;;;4932124;29;20653;-78
2021/11/28 02:47:51;;;;;;;7.97;6.05;;;;;;;;;;4932312;29;20601;-74
2021/11/28 02:50:20;;;;;;;8.15;6.22;;;;;;;;;;4939123;29;20695;-76
2021/11/28 02:52:53;;;;;;;7.55;5.32;;;;;;;;;;4955544;28;20202;-76
2021/11/28 02:55:22;;;;;;;8.60;6.68;;;;;;;;;;4967033;28;20206;-81
2021/11/28 02:57:49;;;;;;;8.43;5.35;;;;;;;;;;4953086;28;20328;-77
2021/11/28 03:00:18;;;;;;;10.18;5.03;;;;;;;;;;4953295;28;20209;-77
2021/11/28 03:02:45;;;;;;;6.72;4.50;;;;;;;;;;4942075;28;20261;-76
2021/11/28 03:05:12;;;;;;;7.75;5.30;;;;;;;;;;4937458;29;20660;-80
2021/11/28 03:07:39;;;;;;;6.57;5.10;;;;;;;;;;4955738;28;20222;-76
2021/11/28 03:10:07;;;;;;;7.70;5.05;;;;;;;;;;4951442;28;20222;-76
2021/11/28 03:12:36;;;;;;;11.18;5.43;;;;;;;;;;4951920;28;20644;-76
2021/11/28 03:15:03;;;;;;;7.50;5.55;;;;;;;;;;4953381;28;20202;-76
2021/11/28 03:17:30;;;;;;;7.22;5.45;;;;;;;;;;4953260;28;20226;-79
2021/11/28 03:19:57;;;;;;;6.85;4.93;;;;;;;;;;4936891;29;20210;-81
2021/11/28 03:22:25;;;;;;;7.95;4.93;;;;;;;;;;4940565;29;20198;-80
2021/11/28 03:24:52;;;;;;;8.70;5.03;;;;;;;;;;4937255;29;20211;-79
2021/11/28 03:27:19;;;;;;;5.80;4.63;;;;;;;;;;4932155;29;20231;-76
2021/11/28 03:29:48;;;;;;;8.27;5.38;;;;;;;;;;4933398;29;20264;-76
2021/11/28 03:32:15;;;;;;;14.07;5.07;;;;;;;;;;4932292;29;20199;-75
2021/11/28 03:34:42;;;;;;;8.10;5.15;;;;;;;;;;4932207;29;20210;-78
2021/11/28 03:37:09;;;;;;;8.05;4.68;;;;;;;;;;4939969;29;20225;-79
2021/11/28 03:39:36;;;;;;;8.27;5.28;;;;;;;;;;4942859;29;20198;-77
2021/11/28 03:42:06;;;;;;;9.30;4.97;;;;;;;;;;4934755;29;20211;-81
2021/11/28 03:44:33;;;;;;;6.47;5.05;;;;;;;;;;4931950;29;20199;-76
2021/11/28 03:47:02;;;;;;;6.85;4.63;;;;;;;;;;4932308;29;20237;-75
2021/11/28 03:49:29;;;;;;;10.13;4.80;;;;;;;;;;4931766;29;20210;-78
2021/11/28 03:51:57;;;;;;;11.57;5.15;;;;;;;;;;4931930;29;20203;-75
2021/11/28 03:54:24;;;;;;;6.95;4.88;;;;;;;;;;4953712;28;20201;-79
2021/11/28 03:56:52;;;;;;;7.85;4.75;;;;;;;;;;4937051;29;20230;-76
2021/11/28 03:59:19;;;;;;;7.03;4.65;;;;;;;;;;4933364;29;20206;-79
2021/11/28 04:01:47;;;;;;;5.45;4.22;;;;;;;;;;4933406;29;20205;-79
2021/11/28 04:04:15;;;;;;;7.00;4.97;;;;;;;;;;4932173;29;20257;-77
2021/11/28 04:06:42;;;;;;;7.57;5.38;;;;;;;;;;4933155;29;20219;-76
2021/11/28 04:09:10;;;;;;;6.65;4.60;;;;;;;;;;4935247;29;20747;-77
2021/11/28 04:11:37;;;;;;;6.20;4.55;;;;;;;;;;4933804;29;20684;-75
2021/11/28 04:14:04;;;;;;;5.20;4.45;;;;;;;;;;4935573;29;20199;-79
2021/11/28 04:16:33;;;;;;;5.10;4.32;;;;;;;;;;4940379;28;20206;-78
2021/11/28 04:19:00;;;;;;;9.38;4.75;;;;;;;;;;4943064;29;20205;-78
2021/11/28 04:21:28;;;;;;;9.77;4.40;;;;;;;;;;4931169;29;20299;-81
2021/11/28 04:23:56;;;;;;;6.95;5.07;;;;;;;;;;4932914;29;20229;-78
2021/11/28 04:26:23;;;;;;;7.40;4.40;;;;;;;;;;4931979;29;20297;-77
2021/11/28 04:28:51;;;;;;;10.20;5.13;;;;;;;;;;4932321;29;20533;-77
2021/11/28 04:31:18;;;;;;;8.07;4.47;;;;;;;;;;4931991;29;20301;-81
2021/11/28 04:33:45;;;;;;;6.90;4.20;;;;;;;;;;4937435;29;20213;-78
2021/11/28 04:36:12;;;;;;;6.97;4.63;;;;;;;;;;4936799;29;20644;-77
2021/11/28 04:38:41;;;;;;;5.30;4.05;;;;;;;;;;4944043;28;20292;-79
2021/11/28 04:41:08;;;;;;;6.55;5.03;;;;;;;;;;4946622;29;20190;-79
2021/11/28 04:43:35;;;;;;;6.65;4.38;;;;;;;;;;4946114;29;20203;-76
2021/11/28 04:46:02;;;;;;;6.32;4.18;;;;;;;;;;4935097;29;20202;-81
2021/11/28 04:48:30;;;;;;;7.85;3.80;;;;;;;;;;4933936;29;20227;-79
2021/11/28 04:50:57;;;;;;;5.15;4.45;;;;;;;;;;4934841;29;20596;-82
2021/11/28 04:53:24;;;;;;;8.25;4.68;;;;;;;;;;4937302;28;20850;-76
2021/11/28 04:55:53;;;;;;;9.88;5.30;;;;;;;;;;4943233;28;20288;-75
2021/11/28 04:58:20;;;;;;;7.95;4.38;;;;;;;;;;4936767;29;20607;-76
2021/11/28 05:00:47;;;;;;;7.45;5.00;;;;;;;;;;4934709;29;20213;-79
2021/11/28 05:03:14;;;;;;;4.80;4.15;;;;;;;;;;4934513;29;20221;-79
2021/11/28 05:05:42;;;;;;;11.95;5.22;;;;;;;;;;4936306;29;20198;-79
2021/11/28 05:08:09;;;;;;;5.22;4.50;;;;;;;;;;4939411;29;20286;-78
2021/11/28 05:10:36;;;;;;;6.75;4.82;;;;;;;;;;4942110;28;20226;-75
2021/11/28 05:13:05;;;;;;;7.13;4.40;;;;;;;;;;4952388;28;20206;-76
2021/11/28 05:15:32;;;;;;;6.35;3.83;;;;;;;;;;4943963;28;20335;-80
2021/11/28 05:17:59;;;;;;;9.13;4.32;;;;;;;;;;4935218;29;20223;-77
2021/11/28 05:20:26;;;;;;;7.85;4.63;;;;;;;;;;4935082;29;20203;-77
2021/11/28 05:22:54;;;;;;;5.93;4.43;;;;;;;;;;4929809;29;20195;-81
2021/11/28 05:25:21;;;;;;;7.13;4.03;;;;;;;;;;4941201;28;20194;-77
2021/11/28 05:27:49;;;;;;;6.03;4.30;;;;;;;;;;4938887;28;20593;-78
2021/11/28 05:30:18;;;;;;;6.70;4.35;;;;;;;;;;4935736;29;20202;-75
2021/11/28 05:32:45;;;;;;;8.55;5.00;;;;;;;;;;4941826;28;20226;-78
2021/11/28 05:35:13;;;;;;;9.13;5.30;;;;;;;;;;4916257;29;20421;-75
2021/11/28 05:37:40;;;;;;;6.20;4.20;;;;;;;;;;4919227;29;20245;-76
2021/11/28 05:40:07;;;;;;;6.85;5.10;;;;;;;;;;4942769;29;20202;-78
2021/11/28 05:42:35;;;;;;;7.35;5.38;;;;;;;;;;4944509;29;20201;-77
2021/11/28 05:45:02;;;;;;;8.05;4.68;;;;;;;;;;4931852;29;20672;-79
2021/11/28 05:47:30;;;;;;;5.78;4.50;;;;;;;;;;4933979;29;20281;-80
2021/11/28 05:49:58;;;;;;;8.02;5.03;;;;;;;;;;4935622;29;20225;-80
2021/11/28 05:52:25;;;;;;;4.97;4.47;;;;;;;;;;4933807;29;20693;-80
2021/11/28 05:54:55;;;;;;;6.57;4.97;;;;;;;;;;4937551;29;20206;-79
2021/11/28 05:57:22;;;;;;;6.57;4.55;;;;;;;;;;4941068;28;20227;-79
2021/11/28 05:59:49;;;;;;;7.07;5.30;;;;;;;;;;4936252;29;20214;-80
2021/11/28 06:02:17;;;;;;;5.93;4.63;;;;;;;;;;4935867;29;20559;-76
2021/11/28 06:04:45;;;;;;;9.85;5.60;;;;;;;;;;4934065;29;20230;-81
2021/11/28 06:07:12;;;;;;;5.90;5.30;;;;;;;;;;4934266;29;20631;-81
2021/11/28 06:09:40;;;;;;;7.53;4.55;;;;;;;;;;4934244;29;20295;-78
2021/11/28 06:12:07;;;;;;;5.95;5.25;;;;;;;;;;4937438;29;20237;-76
2021/11/28 06:14:35;;;;;;;6.45;5.10;;;;;;;;;;4939970;29;20229;-75
2021/11/28 06:17:02;;;;;;;6.15;4.95;;;;;;;;;;4939669;29;20230;-79
2021/11/28 06:19:29;;;;;;;8.32;4.93;;;;;;;;;;4956825;28;20610;-77
2021/11/28 06:21:58;;;;;;;6.68;5.40;;;;;;;;;;4948246;28;20201;-78
2021/11/28 06:24:25;;;;;;;9.55;5.95;;;;;;;;;;4952696;28;20206;-78
2021/11/28 06:26:52;;;;;;;9.48;6.20;;;;;;;;;;4933894;29;20222;-77
2021/11/28 06:29:20;;;;;;;10.43;5.88;;;;;;;;;;4932642;29;20208;-83
2021/11/28 06:31:47;;;;;;;7.18;5.72;;;;;;;;;;4935447;29;20226;-77
2021/11/28 06:34:14;;;;;;;10.18;5.60;;;;;;;;;;4936342;29;20656;-79
2021/11/28 06:36:41;;;;;;;9.10;5.53;;;;;;;;;;4934627;29;20226;-78
2021/11/28 06:39:10;;;;;;;8.32;5.70;;;;;;;;;;4937530;29;20198;-79
2021/11/28 06:41:37;;;;;;;7.85;5.50;;;;;;;;;;4941850;29;20201;-78
2021/11/28 06:44:05;;;;;;;5.85;4.80;;;;;;;;;;4948425;28;20212;-77
2021/11/28 06:46:32;;;;;;;6.80;5.25;;;;;;;;;;4953686;28;20612;-75
2021/11/28 06:48:59;;;;;;;10.20;5.50;;;;;;;;;;4953718;28;20531;-77
2021/11/28 06:51:27;;;;;;;7.65;5.20;;;;;;;;;;4949076;28;20229;-80
2021/11/28 06:53:54;;;;;;;7.10;5.90;;;;;;;;;;4934895;29;20233;-79
2021/11/28 06:56:22;;;;;;;5.10;4.55;;;;;;;;;;4936283;29;20566;-80
2021/11/28 06:58:50;;;;;;;8.13;5.60;;;;;;;;;;4936089;29;20230;-79
2021/11/28 07:01:17;;;;;;;6.80;4.75;;;;;;;;;;4938339;29;20194;-77
2021/11/28 07:03:44;;;;;;;7.25;5.53;;;;;;;;;;4941521;28;20194;-81
2021/11/28 07:06:11;;;;;;;5.93;4.45;;;;;;;;;;4941936;28;20679;-78
2021/11/28 07:08:39;;;;;;;6.07;4.75;;;;;;;;;;4933258;29;20230;-79
2021/11/28 07:11:06;;;;;;;8.40;4.93;;;;;;;;;;4933710;29;20227;-81
2021/11/28 07:13:34;;;;;;;7.70;4.97;;;;;;;;;;4932591;29;20203;-82
2021/11/28 07:16:01;;;;;;;6.35;5.30;;;;;;;;;;4925290;29;20570;-79
2021/11/28 07:18:29;;;;;;;6.80;5.63;;;;;;;;;;4931264;29;20226;-80
2021/11/28 07:20:56;;;;;;;7.68;5.85;;;;;;;;;;4942549;28;20197;-80
2021/11/28 07:23:23;;;;;;;6.53;5.30;;;;;;;;;;4933786;29;20218;-81
2021/11/28 07:25:50;;;;;;;9.98;5.75;;;;;;;;;;4934564;29;20668;-77
2021/11/28 07:28:18;;;;;;;6.90;5.95;;;;;;;;;;4932072;29;20222;-77
2021/11/28 07:30:49;;;;;;;8.50;5.30;;;;;;;;;;4933573;29;20233;-79
2021/11/28 07:33:17;;;;;;;6.25;5.55;;;;;;;;;;4937145;29;20667;-79
2021/11/28 07:35:44;;;;;;;6.60;5.90;;;;;;;;;;4938930;28;20214;-78
2021/11/28 07:38:11;;;;;;;6.40;4.90;;;;;;;;;;4934644;28;20630;-78
2021/11/28 07:40:39;;;;;;;5.97;5.05;;;;;;;;;;4936949;29;20210;-79
2021/11/28 07:43:16;;;;;;;;;;;;;;;;;;;;;
2021/11/28 07:45:47;;;;;;;10.23;5.95;;;;;;;;;;4935360;29;20206;-77
2021/11/28 07:48:15;;;;;;;7.78;5.55;;;;;;;;;;4932531;29;20601;-81
2021/11/28 07:50:43;;;;;;;8.75;5.25;;;;;;;;;;4939814;29;20198;-78
2021/11/28 07:53:10;;;;;;;7.32;5.30;;;;;;;;;;4937237;28;20214;-75
2021/11/28 07:55:37;;;;;;;9.02;5.40;;;;;;;;;;4932752;29;20218;-75
2021/11/28 07:58:05;;;;;;;11.02;5.88;;;;;;;;;;4933201;29;20239;-79
2021/11/28 08:00:35;;;;;;;6.93;5.10;;;;;;;;;;4932913;29;20228;-81
2021/11/28 08:03:02;;;;;;;5.45;4.32;;;;;;;;;;4933675;29;20198;-80
2021/11/28 08:05:31;;;;;;;7.60;5.30;;;;;;;;;;4936163;28;20198;-81
2021/11/28 08:07:58;;;;;;;11.80;5.10;;;;;;;;;;4938250;28;20222;-77
2021/11/28 08:10:26;;;;;;;6.95;4.75;;;;;;;;;;4946532;28;20214;-81
2021/11/28 08:12:53;;;;;;;8.48;4.82;;;;;;;;;;4934171;28;20225;-78
2021/11/28 08:15:20;;;;;;;7.95;4.75;;;;;;;;;;4932348;29;20210;-78
2021/11/28 08:17:49;;;;;;;7.47;4.90;;;;;;;;;;4931307;29;20699;-77
2021/11/28 08:20:17;;;;;;;8.15;4.47;;;;;;;;;;4928179;29;20213;-77
2021/11/28 08:22:46;;;;;;;6.50;5.32;;;;;;;;;;4940123;28;20206;-78
2021/11/28 08:25:14;;;;;;;6.65;5.22;;;;;;;;;;4951812;28;20203;-79
2021/11/28 08:27:42;;;;;;;9.85;5.50;;;;;;;;;;4932232;29;20309;-81
2021/11/28 08:30:13;;;;;;;7.90;5.30;;;;;;;;;;4933393;29;20202;-78
2021/11/28 08:32:40;;;;;;;5.82;5.07;;;;;;;;;;4931331;29;20215;-80
2021/11/28 08:35:07;;;;;;;5.78;4.50;;;;;;;;;;4917237;29;20199;-79
2021/11/28 08:37:35;;;;;;;8.98;6.18;;;;;;;;;;4934400;29;20313;-79
2021/11/28 08:40:04;;;;;;;11.68;5.95;;;;;;;;;;4934032;29;20203;-79
2021/11/28 08:42:33;;;;;;;8.18;6.00;;;;;;;;;;4934127;29;20198;-81
2021/11/28 08:45:00;;;;;;;7.38;5.72;;;;;;;;;;4937527;29;20206;-76
2021/11/28 08:47:27;;;;;;;8.55;5.43;;;;;;;;;;4940487;28;20730;-76
2021/11/28 08:49:54;;;;;;;7.10;5.70;;;;;;;;;;4931305;29;20195;-78
2021/11/28 08:52:22;;;;;;;7.85;6.50;;;;;;;;;;4932738;29;20224;-78
2021/11/28 08:54:49;;;;;;;8.68;5.85;;;;;;;;;;4931710;29;20706;-80
2021/11/28 08:57:17;;;;;;;9.85;5.68;;;;;;;;;;4932894;29;20242;-80
2021/11/28 08:59:45;;;;;;;7.45;5.97;;;;;;;;;;4933413;29;20660;-76
2021/11/28 09:02:12;;;;;;;6.07;4.90;;;;;;;;;;4934188;29;20199;-79
2021/11/28 09:04:40;;;;;;;9.32;6.38;;;;;;;;;;4934632;29;20556;-77
2021/11/28 09:07:07;;;;;;;6.80;5.60;;;;;;;;;;4954713;28;20317;-77
2021/11/28 09:09:35;;;;;;;6.65;5.15;;;;;;;;;;4943886;28;20206;-78
2021/11/28 09:12:03;;;;;;;8.32;5.03;;;;;;;;;;4936881;28;20631;-80
2021/11/28 09:14:32;;;;;;;6.72;5.25;;;;;;;;;;4931167;29;20289;-79
2021/11/28 09:16:59;;;;;;;8.10;5.95;;;;;;;;;;4931027;29;20219;-81
2021/11/28 09:19:32;;;;;;;11.63;6.32;;;;;;;;;;4934103;29;20573;-80
2021/11/28 09:22:01;;;;;;;7.55;6.10;;;;;;;;;;4942153;28;20213;-77
2021/11/28 09:27:13;;;;;;;12.55;6.50;;;;;;;;;;4942853;29;20222;-75
2021/11/28 09:29:42;;;;;;;7.80;6.75;;;;;;;;;;4936127;29;20209;-77
2021/11/28 09:32:10;;;;;;;8.18;6.40;;;;;;;;;;4934506;29;20225;-79
2021/11/28 09:34:38;;;;;;;8.88;6.38;;;;;;;;;;4929588;29;20613;-79
2021/11/28 09:37:08;;;;;;;8.23;6.97;;;;;;;;;;4936475;29;20681;-79
2021/11/28 09:39:35;;;;;;;8.80;6.28;;;;;;;;;;4937321;29;20772;-77
2021/11/28 09:42:04;;;;;;;7.55;5.80;;;;;;;;;;4937518;29;20203;-75
2021/11/28 09:44:33;;;;;;;10.48;6.40;;;;;;;;;;4940958;29;20210;-77
2021/11/28 09:47:01;;;;;;;8.85;6.43;;;;;;;;;;4949171;28;20680;-79
2021/11/28 09:49:29;;;;;;;7.97;5.97;;;;;;;;;;4955246;28;20586;-76
2021/11/28 09:51:57;;;;;;;7.80;6.30;;;;;;;;;;4949935;29;20524;-76
2021/11/28 09:54:25;;;;;;;7.70;6.00;;;;;;;;;;4935892;29;20302;-77
2021/11/28 09:56:52;;;;;;;8.00;6.38;;;;;;;;;;4935418;29;20223;-74
2021/11/28 09:59:20;;;;;;;10.32;7.00;;;;;;;;;;4937436;29;20306;-78
2021/11/28 10:01:47;;;;;;;7.63;6.18;;;;;;;;;;4935811;29;20203;-78
2021/11/28 10:04:17;;;;;;;8.40;6.55;;;;;;;;;;4941968;29;20202;-76
2021/11/28 10:06:44;;;;;;;10.35;7.30;;;;;;;;;;4941127;28;20234;-78
2021/11/28 10:09:13;;;;;;;7.10;5.95;;;;;;;;;;4933325;29;20677;-78
2021/11/28 10:11:55;;;;;;;8.27;6.13;;;;;;;;;;4935237;29;20206;-79
2021/11/28 10:14:22;;;;;;;10.52;6.35;;;;;;;;;;4935119;29;20202;-77
2021/11/28 10:16:50;;;;;;;9.35;6.50;;;;;;;;;;4934217;29;20704;-77
2021/11/28 10:19:20;;;;;;;6.47;5.43;;;;;;;;;;4937720;29;20199;-78
2021/11/28 10:21:47;;;;;;;8.85;6.22;;;;;;;;;;4942566;29;20221;-78
2021/11/28 10:24:16;;;;;;;9.63;6.55;;;;;;;;;;4951521;28;20233;-81
2021/11/28 10:26:53;;;;;;;10.73;7.25;;;;;;;;;;4953519;28;20553;-80
2021/11/28 10:29:21;;;;;;;8.70;5.88;;;;;;;;;;4953985;28;20208;-80
2021/11/28 10:31:50;;;;;;;9.90;5.95;;;;;;;;;;4940927;28;20214;-77
2021/11/28 10:34:19;;;;;;;7.30;5.70;;;;;;;;;;4934288;29;20199;-82
2021/11/28 10:36:47;;;;;;;9.77;6.30;;;;;;;;;;4940193;28;20222;-78
2021/11/28 10:39:15;;;;;;;9.88;6.07;;;;;;;;;;4944794;28;20202;-77
2021/11/28 10:41:48;;;;;;;8.63;7.13;;;;;;;;;;4953801;29;20206;-79
2021/11/28 10:44:16;;;;;;;9.52;7.20;;;;;;;;;;4953703;29;20202;-77
2021/11/28 10:46:43;;;;;;;10.43;7.93;;;;;;;;;;4936778;29;20591;-76
2021/11/28 10:49:11;;;;;;;8.32;6.60;;;;;;;;;;4932836;29;20209;-80
2021/11/28 10:51:41;;;;;;;11.65;7.20;;;;;;;;;;4934923;29;20203;-79
2021/11/28 10:54:22;;;;;;;12.88;8.63;;;;;;;;;;4934362;29;20816;-77
2021/11/28 10:56:50;;;;;;;14.27;8.57;;;;;;;;;;4933386;29;20227;-75
2021/11/28 11:02:28;;;;;;;10.48;7.65;;;;;;;;;;4927746;29;20249;-79
2021/11/28 11:05:01;;;;;;;11.68;8.00;;;;;;;;;;4969495;28;20197;-80
2021/11/28 11:07:41;;;;;;;10.60;6.78;;;;;;;;;;4969312;28;20621;-77
2021/11/28 11:10:22;;;;;;;9.50;7.13;;;;;;;;;;4949615;28;20276;-78
2021/11/28 11:12:53;;;;;;;9.65;6.80;;;;;;;;;;4965041;28;20691;-82
2021/11/28 11:15:39;;;;;;;10.25;7.68;;;;;;;;;;4967230;28;20189;-80
2021/11/28 11:18:09;;;;;;;10.30;7.68;;;;;;;;;;4968993;28;20304;-79
2021/11/28 11:20:46;;;;;;;10.70;7.43;;;;;;;;;;4967914;28;20580;-81
2021/11/28 11:23:35;;;;;;;12.77;7.80;;;;;;;;;;4945312;28;20660;-79
2021/11/28 11:26:17;;;;;;;11.65;7.28;;;;;;;;;;4936833;28;20285;-77
2021/11/28 11:29:06;;;;;;;17.55;9.60;;;;;;;;;;4957030;28;20205;-81
2021/11/28 11:31:35;;;;;;;11.35;8.25;;;;;;;;;;4956276;28;20201;-76
2021/11/28 11:34:02;;;;;;;10.88;7.57;;;;;;;;;;4967047;28;20874;-83
2021/11/28 11:36:44;;;;;;;8.70;7.35;;;;;;;;;;4947402;28;20286;-78
2021/11/28 11:39:12;;;;;;;11.60;7.90;;;;;;;;;;4937164;28;20217;-82
2021/11/28 11:41:39;;;;;;;13.25;8.63;;;;;;;;;;4932126;29;20214;-79
2021/11/28 11:44:06;;;;;;;12.10;8.57;;;;;;;;;;4933643;29;20661;-75
2021/11/28 11:46:35;;;;;;;10.65;7.53;;;;;;;;;;4932558;29;20293;-76
2021/11/28 11:49:03;;;;;;;13.23;8.35;;;;;;;;;;4933909;29;20194;-79
2021/11/28 11:51:31;;;;;;;12.13;8.57;;;;;;;;;;4935521;29;20198;-76
2021/11/28 11:54:02;;;;;;;10.45;7.50;;;;;;;;;;4934293;29;20274;-79
2021/11/28 11:56:30;;;;;;;9.98;7.63;;;;;;;;;;4933441;28;20212;-76
2021/11/28 11:59:03;;;;;;;12.18;8.23;;;;;;;;;;4939214;29;20238;-76
2021/11/28 12:01:31;;;;;;;10.50;8.30;;;;;;;;;;4947600;28;20210;-80
2021/11/28 12:04:00;;;;;;;13.10;8.18;;;;;;;;;;4936295;29;20202;-76
2021/11/28 12:06:44;;;;;;;11.73;8.65;;;;;;;;;;4932244;29;20206;-79
2021/11/28 12:09:23;;;;;;;12.00;8.60;;;;;;;;;;4931824;29;20621;-78
2021/11/28 12:11:55;;;;;;;12.77;8.70;;;;;;;;;;4932712;29;20213;-76
2021/11/28 12:14:22;;;;;;;13.20;8.48;;;;;;;;;;4934789;29;20229;-75
2021/11/28 12:16:49;;;;;;;9.68;8.35;;;;;;;;;;4939918;29;20214;-79
2021/11/28 12:19:31;;;;;;;12.35;8.52;;;;;;;;;;4934343;29;20299;-77
2021/11/28 12:22:00;;;;;;;12.38;8.63;;;;;;;;;;4945625;28;20210;-77
2021/11/28 12:27:08;;;;;;;15.07;9.40;;;;;;;;;;4921350;29;20580;-82
2021/11/28 12:29:38;;;;;;;14.50;10.10;;;;;;;;;;4936851;29;20211;-76
2021/11/28 12:32:23;;;;;;;17.42;11.68;;;;;;;;;;4952914;28;20288;-77
2021/11/28 12:34:52;;;;;;;14.25;10.60;;;;;;;;;;4932096;28;20206;-75
2021/11/28 12:37:22;;;;;;;16.95;11.50;;;;;;;;;;4931758;29;20229;-81
2021/11/28 12:39:50;;;;;;;17.17;11.63;;;;;;;;;;4930661;29;20206;-78
2021/11/28 12:42:21;;;;;;;12.90;10.25;;;;;;;;;;4933244;29;20210;-77
2021/11/28 12:48:02;;;;;;;13.90;11.00;;;;;;;;;;4933467;29;20227;-80
2021/11/28 12:50:30;;;;;;;18.60;12.55;;;;;;;;;;4933051;29;20660;-77
2021/11/28 12:53:06;;;;;;;18.75;12.07;;;;;;;;;;4930972;28;20227;-79
2021/11/28 12:55:33;;;;;;;19.33;11.65;;;;;;;;;;4915654;29;20283;-79
2021/11/28 12:58:08;;;;;;;18.02;12.60;;;;;;;;;;4913916;29;20258;-80
2021/11/28 13:00:37;;;;;;;15.98;12.40;;;;;;;;;;4915056;29;20230;-81
2021/11/28 13:03:20;;;;;;;16.38;11.95;;;;;;;;;;4921239;29;20206;-79
2021/11/28 13:05:49;;;;;;;18.85;12.13;;;;;;;;;;4936366;29;20559;-75
2021/11/28 13:08:31;;;;;;;17.30;12.45;;;;;;;;;;4936208;29;20223;-79
2021/11/28 13:10:59;;;;;;;16.25;11.07;;;;;;;;;;4925341;28;20250;-75
2021/11/28 13:13:29;;;;;;;19.30;13.73;;;;;;;;;;4942747;28;20222;-82
2021/11/28 13:15:56;;;;;;;20.45;14.13;;;;;;;;;;4937112;29;20296;-77
2021/11/28 13:18:25;;;;;;;18.48;13.25;;;;;;;;;;4939674;28;20226;-79
2021/11/28 13:20:53;;;;;;;15.70;11.57;;;;;;;;;;4954663;28;20616;-80
2021/11/28 13:23:22;;;;;;;14.93;12.10;;;;;;;;;;4949870;28;20219;-78
2021/11/28 13:25:52;;;;;;;17.17;13.20;;;;;;;;;;4936860;29;20213;-81
2021/11/28 13:28:20;;;;;;;19.05;13.35;;;;;;;;;;4940088;29;20223;-75
2021/11/28 13:30:50;;;;;;;16.70;13.25;;;;;;;;;;4938950;29;20235;-77
2021/11/28 13:33:18;;;;;;;15.38;13.00;;;;;;;;;;4942266;29;20222;-76
2021/11/28 13:35:53;;;;;;;19.95;12.50;;;;;;;;;;4961888;28;20575;-77
2021/11/28 13:38:21;;;;;;;20.08;12.73;;;;;;;;;;4954821;28;20248;-80
2021/11/28 13:41:03;;;;;;;17.23;12.82;;;;;;;;;;4954913;29;20212;-79
2021/11/28 13:43:35;;;;;;;20.08;13.05;;;;;;;;;;4940290;28;20230;-77
2021/11/28 13:46:03;;;;;;;20.13;13.77;;;;;;;;;;4925170;29;20564;-78
2021/11/28 13:48:45;;;;;;;17.33;13.13;;;;;;;;;;4930567;29;20265;-82
2021/11/28 13:51:12;;;;;;;19.17;14.20;;;;;;;;;;4925985;29;20209;-76
2021/11/28 13:53:54;;;;;;;18.33;13.43;;;;;;;;;;4950085;28;20222;-75
2021/11/28 13:56:22;;;;;;;18.33;13.98;;;;;;;;;;4937824;28;20233;-75
2021/11/28 13:59:04;;;;;;;18.08;12.75;;;;;;;;;;4904479;29;20781;-79
2021/11/28 14:01:32;;;;;;;21.85;14.25;;;;;;;;;;4910707;29;20703;-78
2021/11/28 14:03:59;;;;;;;16.38;12.13;;;;;;;;;;4918838;29;20203;-79
2021/11/28 14:06:27;;;;;;;19.38;14.13;;;;;;;;;;4933699;29;20213;-79
2021/11/28 14:08:54;;;;;;;20.63;13.65;;;;;;;;;;4934269;29;20217;-80
2021/11/28 14:11:22;;;;;;;16.17;11.68;;;;;;;;;;4932366;29;20576;-80
2021/11/28 14:13:52;;;;;;;17.15;12.27;;;;;;;;;;4938178;28;20215;-76
2021/11/28 14:16:27;;;;;;;18.35;12.75;;;;;;;;;;4949015;29;20209;-79
2021/11/28 14:18:59;;;;;;;21.05;14.23;;;;;;;;;;4934218;29;20206;-79
2021/11/28 14:21:32;;;;;;;24.23;15.13;;;;;;;;;;4933721;29;20289;-79
2021/11/28 14:23:59;;;;;;;19.05;13.30;;;;;;;;;;4941197;28;20207;-75
2021/11/28 14:26:29;;;;;;;18.60;12.77;;;;;;;;;;4936978;29;20207;-79
2021/11/28 14:28:57;;;;;;;18.20;12.60;;;;;;;;;;4935288;29;20198;-79
2021/11/28 14:31:24;;;;;;;22.70;13.10;;;;;;;;;;4953682;29;20212;-78
2021/11/28 14:33:52;;;;;;;19.73;13.32;;;;;;;;;;4941868;28;20229;-76
2021/11/28 14:36:24;;;;;;;20.25;12.80;;;;;;;;;;4945157;28;20194;-85
2021/11/28 14:38:52;;;;;;;20.00;15.00;;;;;;;;;;4946226;28;20577;-78
2021/11/28 14:41:21;;;;;;;24.52;14.82;;;;;;;;;;4933461;29;20573;-79
2021/11/28 14:43:52;;;;;;;20.55;13.80;;;;;;;;;;4915079;29;20246;-77
2021/11/28 14:46:23;;;;;;;22.77;14.75;;;;;;;;;;4918925;29;20211;-77
2021/11/28 14:48:55;;;;;;;22.00;14.85;;;;;;;;;;4937216;29;20207;-80
2021/11/28 14:51:33;;;;;;;19.88;14.15;;;;;;;;;;4942041;29;20200;-80
2021/11/28 14:54:05;;;;;;;21.85;13.40;;;;;;;;;;4949338;28;20696;-80
2021/11/28 14:56:32;;;;;;;19.30;13.82;;;;;;;;;;4933913;29;20209;-81
2021/11/28 14:58:59;;;;;;;20.42;13.45;;;;;;;;;;4934147;29;20234;-79